createdAt,value
2018-06-14T00:00:35.150Z,11.90
2018-06-14T00:03:03.685Z,12.00
2018-06-14T00:05:32.794Z,12.00
2018-06-14T00:08:01.275Z,12.00
2018-06-14T00:10:30.025Z,11.90
2018-06-14T00:12:58.605Z,11.90
2018-06-14T00:15:27.072Z,11.90
2018-06-14T00:17:55.517Z,11.90
2018-06-14T00:20:24.057Z,11.90
2018-06-14T00:22:52.469Z,11.90
2018-06-14T00:25:20.993Z,11.90
2018-06-14T00:27:49.484Z,11.90
2018-06-14T00:30:17.940Z,11.80
2018-06-14T00:32:46.545Z,11.90
2018-06-14T00:35:15.005Z,11.90
2018-06-14T00:37:43.486Z,11.90
2018-06-14T00:40:11.946Z,11.90
2018-06-14T00:42:40.375Z,11.90
2018-06-14T00:45:09.055Z,11.90
2018-06-14T00:47:37.549Z,11.90
2018-06-14T00:50:06.592Z,11.90
2018-06-14T00:52:35.060Z,11.90
2018-06-14T00:55:03.497Z,11.90
2018-06-14T00:57:32.737Z,11.90
2018-06-14T01:00:01.194Z,11.80
2018-06-14T01:02:29.745Z,11.70
2018-06-14T01:04:58.225Z,11.70
2018-06-14T01:07:26.655Z,11.70
2018-06-14T01:09:55.124Z,11.70
2018-06-14T01:12:23.568Z,11.70
2018-06-14T01:14:52.053Z,11.70
2018-06-14T01:17:20.500Z,11.80
2018-06-14T01:19:48.944Z,11.80
2018-06-14T01:22:17.385Z,11.90
2018-06-14T01:24:45.864Z,11.90
2018-06-14T01:27:14.443Z,11.90
2018-06-14T01:29:43.001Z,11.80
2018-06-14T01:32:11.524Z,11.80
2018-06-14T01:34:39.929Z,11.80
2018-06-14T01:37:08.538Z,11.70
2018-06-14T01:39:36.972Z,11.60
2018-06-14T01:42:05.433Z,11.70
2018-06-14T01:44:33.927Z,11.70
2018-06-14T01:47:02.353Z,11.70
2018-06-14T01:49:30.870Z,11.70
2018-06-14T01:51:59.282Z,11.80
2018-06-14T01:54:27.759Z,11.70
2018-06-14T01:56:56.161Z,11.70
2018-06-14T01:59:24.620Z,11.70
2018-06-14T02:01:53.095Z,11.70
2018-06-14T02:04:21.695Z,11.70
2018-06-14T02:06:50.176Z,11.70
2018-06-14T02:09:18.657Z,11.60
2018-06-14T02:11:47.272Z,11.60
2018-06-14T02:14:15.716Z,11.60
2018-06-14T02:16:44.249Z,11.60
2018-06-14T02:19:12.716Z,11.60
2018-06-14T02:21:41.148Z,11.60
2018-06-14T02:24:09.573Z,11.60
2018-06-14T02:26:38.058Z,11.60
2018-06-14T02:29:06.504Z,11.60
2018-06-14T02:31:34.938Z,11.60
2018-06-14T02:34:03.389Z,11.60
2018-06-14T02:36:32.277Z,11.60
2018-06-14T02:39:00.773Z,11.50
2018-06-14T02:41:29.216Z,11.50
2018-06-14T02:43:57.737Z,11.60
2018-06-14T02:46:26.201Z,11.60
2018-06-14T02:48:54.684Z,11.60
2018-06-14T02:51:23.137Z,11.60
2018-06-14T02:53:51.572Z,11.60
2018-06-14T02:56:20.089Z,11.40
2018-06-14T02:58:48.565Z,11.50
2018-06-14T03:01:17.057Z,11.50
2018-06-14T03:03:45.513Z,11.50
2018-06-14T03:06:14.009Z,11.50
2018-06-14T03:08:42.490Z,11.50
2018-06-14T03:11:10.977Z,11.50
2018-06-14T03:13:39.558Z,11.50
2018-06-14T03:16:08.025Z,11.40
2018-06-14T03:18:36.437Z,11.50
2018-06-14T03:21:04.919Z,11.50
2018-06-14T03:23:33.462Z,11.50
2018-06-14T03:26:02.007Z,11.40
2018-06-14T03:28:30.428Z,11.40
2018-06-14T03:31:00.015Z,11.40
2018-06-14T03:35:56.612Z,11.40
2018-06-14T03:38:25.964Z,11.40
2018-06-14T03:40:54.520Z,11.40
2018-06-14T03:43:22.892Z,11.40
2018-06-14T03:45:51.380Z,11.40
2018-06-14T03:48:19.816Z,11.50
2018-06-14T03:50:48.261Z,11.40
2018-06-14T03:53:16.709Z,11.40
2018-06-14T03:55:45.234Z,11.40
2018-06-14T03:58:14.568Z,11.40
2018-06-14T04:00:43.165Z,11.50
2018-06-14T04:03:11.845Z,11.50
2018-06-14T04:05:40.333Z,11.50
2018-06-14T04:08:08.849Z,11.50
2018-06-14T04:10:37.468Z,11.50
2018-06-14T04:13:06.384Z,11.50
2018-06-14T04:15:34.940Z,11.50
2018-06-14T04:18:04.050Z,11.60
2018-06-14T04:20:34.008Z,11.60
2018-06-14T04:23:02.566Z,11.60
2018-06-14T04:25:31.036Z,11.60
2018-06-14T04:27:59.581Z,11.60
2018-06-14T04:30:28.027Z,11.70
2018-06-14T04:32:56.506Z,11.70
2018-06-14T04:35:25.063Z,11.70
2018-06-14T04:37:54.136Z,11.70
2018-06-14T04:40:22.577Z,11.70
2018-06-14T04:42:51.222Z,11.70
2018-06-14T04:45:19.708Z,11.80
2018-06-14T04:47:48.182Z,11.70
2018-06-14T04:50:17.266Z,11.80
2018-06-14T04:52:45.715Z,11.80
2018-06-14T04:55:14.224Z,11.80
2018-06-14T04:57:42.673Z,11.80
2018-06-14T05:00:11.169Z,11.80
2018-06-14T05:02:39.677Z,11.90
2018-06-14T05:07:36.762Z,12.00
2018-06-14T05:10:05.313Z,12.00
2018-06-14T05:12:33.852Z,12.00
2018-06-14T05:15:02.354Z,12.00
2018-06-14T05:17:30.829Z,12.00
2018-06-14T05:19:59.304Z,12.00
2018-06-14T05:22:27.756Z,12.10
2018-06-14T05:24:56.182Z,12.10
2018-06-14T05:27:24.838Z,12.20
2018-06-14T05:29:53.272Z,12.20
2018-06-14T05:32:21.794Z,12.20
2018-06-14T05:34:50.423Z,12.20
2018-06-14T05:37:19.217Z,12.20
2018-06-14T05:39:47.645Z,12.20
2018-06-14T05:42:16.255Z,12.30
2018-06-14T05:44:44.698Z,12.40
2018-06-14T05:47:13.196Z,12.40
2018-06-14T05:49:41.628Z,12.40
2018-06-14T05:52:10.134Z,12.40
2018-06-14T05:54:39.336Z,12.40
2018-06-14T05:57:07.863Z,12.50
2018-06-14T05:59:36.937Z,12.50
2018-06-14T06:02:05.374Z,12.60
2018-06-14T06:04:34.009Z,12.70
2018-06-14T06:07:02.778Z,12.70
2018-06-14T06:12:00.284Z,12.80
2018-06-14T06:14:29.296Z,12.80
2018-06-14T06:16:58.739Z,12.90
2018-06-14T06:19:28.550Z,12.90
2018-06-14T06:21:57.061Z,13.00
2018-06-14T06:26:55.057Z,13.10
2018-06-14T06:29:23.847Z,13.20
2018-06-14T06:31:52.343Z,13.30
2018-06-14T06:34:21.345Z,13.30
2018-06-14T06:36:50.403Z,13.40
2018-06-14T06:39:18.946Z,13.40
2018-06-14T06:41:47.696Z,13.40
2018-06-14T06:44:16.534Z,13.50
2018-06-14T06:46:45.168Z,13.50
2018-06-14T06:49:13.981Z,13.60
2018-06-14T06:51:43.036Z,13.70
2018-06-14T06:54:11.494Z,13.70
2018-06-14T06:56:40.299Z,13.80
2018-06-14T06:59:09.897Z,14.00
2018-06-14T07:01:38.382Z,14.00
2018-06-14T07:04:07.081Z,14.10
2018-06-14T07:06:35.529Z,14.20
2018-06-14T07:09:06.535Z,14.30
2018-06-14T07:11:35.236Z,14.20
2018-06-14T07:14:03.768Z,14.40
2018-06-14T07:16:32.247Z,14.40
2018-06-14T07:19:00.790Z,14.50
2018-06-14T07:21:29.275Z,14.60
2018-06-14T07:23:59.520Z,14.60
2018-06-14T07:26:27.960Z,14.70
2018-06-14T07:28:56.496Z,14.90
2018-06-14T07:31:25.367Z,14.90
2018-06-14T07:33:53.880Z,14.80
2018-06-14T07:36:22.353Z,14.80
2018-06-14T07:38:50.813Z,14.90
2018-06-14T07:41:19.297Z,14.80
2018-06-14T07:43:47.899Z,14.90
2018-06-14T07:48:44.476Z,15.00
2018-06-14T07:51:13.037Z,14.80
2018-06-14T07:53:41.519Z,14.90
2018-06-14T07:56:09.964Z,15.00
2018-06-14T07:58:38.438Z,14.80
2018-06-14T08:01:06.929Z,14.90
2018-06-14T08:03:35.368Z,15.00
2018-06-14T08:06:03.833Z,14.90
2018-06-14T08:08:32.388Z,14.70
2018-06-14T08:11:00.882Z,14.70
2018-06-14T08:13:29.334Z,14.90
2018-06-14T08:15:57.782Z,14.90
2018-06-14T08:18:26.257Z,14.90
2018-06-14T08:20:54.649Z,14.90
2018-06-14T08:23:23.144Z,14.90
2018-06-14T08:25:51.565Z,14.90
2018-06-14T08:28:20.059Z,14.90
2018-06-14T08:30:48.505Z,14.80
2018-06-14T08:33:17.108Z,14.80
2018-06-14T08:35:45.585Z,14.80
2018-06-14T08:38:14.044Z,14.90
2018-06-14T08:40:42.548Z,15.00
2018-06-14T08:43:11.077Z,14.90
2018-06-14T08:48:07.681Z,15.00
2018-06-14T08:50:36.357Z,15.00
2018-06-14T08:53:04.825Z,15.10
2018-06-14T08:55:33.786Z,15.00
2018-06-14T09:00:30.472Z,15.10
2018-06-14T09:02:58.950Z,15.00
2018-06-14T09:05:27.395Z,15.00
2018-06-14T09:07:55.789Z,15.10
2018-06-14T09:10:24.289Z,15.10
2018-06-14T09:12:52.708Z,15.10
2018-06-14T09:15:21.178Z,15.20
2018-06-14T09:17:49.646Z,15.40
2018-06-14T09:20:18.101Z,15.60
2018-06-14T09:22:46.545Z,15.50
2018-06-14T09:25:14.986Z,15.70
2018-06-14T09:27:43.516Z,15.60
2018-06-14T09:30:12.106Z,15.80
2018-06-14T09:32:40.585Z,15.80
2018-06-14T09:35:09.033Z,16.00
2018-06-14T09:37:37.665Z,16.10
2018-06-14T09:40:06.173Z,16.30
2018-06-14T09:42:34.621Z,16.40
2018-06-14T09:45:03.107Z,16.40
2018-06-14T09:47:31.573Z,16.50
2018-06-14T09:50:00.058Z,16.60
2018-06-14T09:52:28.565Z,16.60
2018-06-14T09:54:57.012Z,16.70
2018-06-14T09:57:25.497Z,16.90
2018-06-14T09:59:53.961Z,17.00
2018-06-14T10:02:22.485Z,17.10
2018-06-14T10:04:51.009Z,17.20
2018-06-14T10:07:19.528Z,17.10
2018-06-14T10:09:47.998Z,17.30
2018-06-14T10:12:16.738Z,17.20
2018-06-14T10:14:45.165Z,17.20
2018-06-14T10:17:13.678Z,17.10
2018-06-14T10:19:42.126Z,17.40
2018-06-14T10:22:10.574Z,17.60
2018-06-14T10:24:39.106Z,17.80
2018-06-14T10:27:07.602Z,18.10
2018-06-14T10:29:36.022Z,18.10
2018-06-14T10:32:04.546Z,18.10
2018-06-14T10:34:32.973Z,18.30
2018-06-14T10:37:01.442Z,18.20
2018-06-14T10:39:29.878Z,18.40
2018-06-14T10:41:58.304Z,18.20
2018-06-14T10:44:26.756Z,18.30
2018-06-14T10:46:55.326Z,18.30
2018-06-14T10:49:23.809Z,18.30
2018-06-14T10:51:52.541Z,18.20
2018-06-14T10:54:20.966Z,18.70
2018-06-14T10:56:49.389Z,18.80
2018-06-14T10:59:17.922Z,18.70
2018-06-14T11:01:46.445Z,18.70
2018-06-14T11:04:14.932Z,18.70
2018-06-14T11:06:43.462Z,18.60
2018-06-14T11:09:12.417Z,18.60
2018-06-14T11:11:42.021Z,18.80
2018-06-14T11:14:10.505Z,19.00
2018-06-14T11:16:39.010Z,19.10
2018-06-14T11:19:07.458Z,19.30
2018-06-14T11:21:35.940Z,19.40
2018-06-14T11:24:04.611Z,19.20
2018-06-14T11:26:33.069Z,19.10
2018-06-14T11:29:01.646Z,19.30
2018-06-14T11:31:30.109Z,19.30
2018-06-14T11:33:59.348Z,19.40
2018-06-14T11:36:27.802Z,19.40
2018-06-14T11:38:56.252Z,19.40
2018-06-14T11:41:24.916Z,19.30
2018-06-14T11:43:53.616Z,19.10
2018-06-14T11:46:22.089Z,19.00
2018-06-14T11:48:50.641Z,19.10
2018-06-14T11:51:19.198Z,19.20
2018-06-14T11:53:47.800Z,19.10
2018-06-14T11:56:17.033Z,19.10
2018-06-14T11:58:45.549Z,19.10
2018-06-14T12:01:14.085Z,19.10
2018-06-14T12:03:42.642Z,19.00
2018-06-14T12:06:11.073Z,19.30
2018-06-14T12:08:40.264Z,19.40
2018-06-14T12:11:09.149Z,19.20
2018-06-14T12:13:37.857Z,19.20
2018-06-14T12:16:06.357Z,19.00
2018-06-14T12:18:34.776Z,19.20
2018-06-14T12:21:03.217Z,19.50
2018-06-14T12:23:31.749Z,19.70
2018-06-14T12:26:00.181Z,19.80
2018-06-14T12:28:28.609Z,20.30
2018-06-14T12:30:57.088Z,20.80
2018-06-14T12:33:25.536Z,21.00
2018-06-14T12:35:54.033Z,21.30
2018-06-14T12:38:22.513Z,20.90
2018-06-14T12:40:51.106Z,21.40
2018-06-14T12:43:19.649Z,21.50
2018-06-14T12:45:48.468Z,21.30
2018-06-14T12:48:16.933Z,20.40
2018-06-14T12:50:46.237Z,19.80
2018-06-14T12:53:14.980Z,19.70
2018-06-14T12:55:43.700Z,20.00
2018-06-14T12:58:12.407Z,20.80
2018-06-14T13:00:41.249Z,20.80
2018-06-14T13:03:09.771Z,21.90
2018-06-14T13:08:06.534Z,22.50
2018-06-14T13:13:03.511Z,23.10
2018-06-14T13:15:32.221Z,23.40
2018-06-14T13:18:01.301Z,23.40
2018-06-14T13:20:30.445Z,23.70
2018-06-14T13:22:58.893Z,23.40
2018-06-14T13:25:27.489Z,23.20
2018-06-14T13:27:55.916Z,23.40
2018-06-14T13:30:25.146Z,23.60
2018-06-14T13:32:53.871Z,23.70
2018-06-14T13:35:22.355Z,24.00
2018-06-14T13:37:51.726Z,24.00
2018-06-14T13:40:20.663Z,23.80
2018-06-14T13:42:50.295Z,23.90
2018-06-14T13:45:18.784Z,24.00
2018-06-14T13:47:47.492Z,23.40
2018-06-14T13:50:16.071Z,23.80
2018-06-14T13:52:45.265Z,23.90
2018-06-14T13:55:13.764Z,24.30
2018-06-14T13:57:42.712Z,24.50
2018-06-14T14:00:11.271Z,24.30
2018-06-14T14:02:39.806Z,24.10
2018-06-14T14:05:08.646Z,23.40
2018-06-14T14:07:37.348Z,23.20
2018-06-14T14:10:05.888Z,23.40
2018-06-14T14:12:34.338Z,23.70
2018-06-14T14:15:02.823Z,23.30
2018-06-14T14:17:31.265Z,22.40
2018-06-14T14:19:59.660Z,22.20
2018-06-14T14:22:28.182Z,22.30
2018-06-14T14:24:56.657Z,22.30
2018-06-14T14:27:25.088Z,22.40
2018-06-14T14:29:53.653Z,22.70
2018-06-14T14:32:22.137Z,22.90
2018-06-14T14:34:50.685Z,23.30
2018-06-14T14:37:19.183Z,23.20
2018-06-14T14:39:47.654Z,23.10
2018-06-14T14:42:16.214Z,22.60
2018-06-14T14:44:44.792Z,21.90
2018-06-14T14:47:13.478Z,21.60
2018-06-14T14:52:10.097Z,20.90
2018-06-14T14:54:38.597Z,21.00
2018-06-14T14:57:07.691Z,21.00
2018-06-14T14:59:36.221Z,20.60
2018-06-14T15:02:04.695Z,20.50
2018-06-14T15:04:33.250Z,20.20
2018-06-14T15:07:01.685Z,20.00
2018-06-14T15:09:30.157Z,19.90
2018-06-14T15:11:58.784Z,20.00
2018-06-14T15:14:27.358Z,20.00
2018-06-14T15:16:56.367Z,20.00
2018-06-14T15:19:24.796Z,19.70
2018-06-14T15:21:53.644Z,19.80
2018-06-14T15:24:22.107Z,20.20
2018-06-14T15:26:51.160Z,20.40
2018-06-14T15:29:19.605Z,20.50
2018-06-14T15:31:48.149Z,20.30
2018-06-14T15:34:16.697Z,20.20
2018-06-14T15:36:45.883Z,19.90
2018-06-14T15:39:14.415Z,19.60
2018-06-14T15:41:43.084Z,19.80
2018-06-14T15:44:11.628Z,19.90
2018-06-14T15:49:08.321Z,19.20
2018-06-14T15:51:37.083Z,19.20
2018-06-14T15:54:05.568Z,19.20
2018-06-14T15:56:40.380Z,19.10
2018-06-14T15:59:10.101Z,19.00
2018-06-14T16:01:38.753Z,19.10
2018-06-14T16:04:07.649Z,18.80
2018-06-14T16:06:36.130Z,18.80
2018-06-14T16:09:07.729Z,18.70
2018-06-14T16:11:36.413Z,18.70
2018-06-14T16:16:33.282Z,18.70
2018-06-14T16:19:01.797Z,18.60
2018-06-14T16:21:30.285Z,18.70
2018-06-14T16:23:58.960Z,18.60
2018-06-14T16:26:27.588Z,18.50
2018-06-14T16:29:00.977Z,18.50
2018-06-14T16:31:29.669Z,18.50
2018-06-14T16:34:08.705Z,18.50
2018-06-14T16:36:37.172Z,18.40
2018-06-14T16:39:08.214Z,18.30
2018-06-14T16:41:37.409Z,18.20
2018-06-14T16:44:05.920Z,18.10
2018-06-14T16:46:34.402Z,18.10
2018-06-14T16:49:02.875Z,18.10
2018-06-14T16:51:31.410Z,18.10
2018-06-14T16:54:00.093Z,18.00
2018-06-14T16:56:28.588Z,18.00
2018-06-14T16:58:57.017Z,18.20
2018-06-14T17:01:25.626Z,18.20
2018-06-14T17:03:54.020Z,18.20
2018-06-14T17:06:22.680Z,18.20
2018-06-14T17:08:51.166Z,18.20
2018-06-14T17:11:19.636Z,18.10
2018-06-14T17:13:48.181Z,18.00
2018-06-14T17:16:16.597Z,18.00
2018-06-14T17:21:13.265Z,17.90
2018-06-14T17:23:41.748Z,17.90
2018-06-14T17:26:10.146Z,17.90
2018-06-14T17:28:38.728Z,17.80
2018-06-14T17:31:07.345Z,17.90
2018-06-14T17:33:36.037Z,17.80
2018-06-14T17:36:04.660Z,17.80
2018-06-14T17:38:33.119Z,17.80
2018-06-14T17:41:01.694Z,17.80
2018-06-14T17:43:30.106Z,17.70
2018-06-14T17:45:58.593Z,17.60
2018-06-14T17:48:27.014Z,17.50
2018-06-14T17:50:55.493Z,17.50
2018-06-14T17:53:24.021Z,17.50
2018-06-14T17:55:52.624Z,17.50
2018-06-14T17:58:21.195Z,17.40
2018-06-14T18:00:49.985Z,17.40
2018-06-14T18:03:18.482Z,17.30
2018-06-14T18:05:46.982Z,17.40
2018-06-14T18:08:15.407Z,17.40
2018-06-14T18:10:43.878Z,17.40
2018-06-14T18:13:12.433Z,17.50
2018-06-14T18:15:40.978Z,17.40
2018-06-14T18:18:09.554Z,17.40
2018-06-14T18:20:38.020Z,17.40
2018-06-14T18:23:06.511Z,17.40
2018-06-14T18:25:34.989Z,17.30
2018-06-14T18:28:03.454Z,17.30
2018-06-14T18:30:32.042Z,17.20
2018-06-14T18:33:00.496Z,17.20
2018-06-14T18:35:28.970Z,17.20
2018-06-14T18:37:57.488Z,17.10
2018-06-14T18:40:26.058Z,16.90
2018-06-14T18:42:54.520Z,16.80
2018-06-14T18:45:23.646Z,16.60
2018-06-14T18:47:52.096Z,16.50
2018-06-14T18:50:21.413Z,16.40
2018-06-14T18:52:49.880Z,16.30
2018-06-14T18:55:18.426Z,16.20
2018-06-14T18:57:46.995Z,16.20
2018-06-14T19:00:15.499Z,16.10
2018-06-14T19:02:45.262Z,15.90
2018-06-14T19:05:13.701Z,15.80
2018-06-14T19:07:42.311Z,15.70
2018-06-14T19:10:10.948Z,15.60
2018-06-14T19:12:39.401Z,15.50
2018-06-14T19:15:08.005Z,15.30
2018-06-14T19:17:36.633Z,15.10
2018-06-14T19:20:05.006Z,15.00
2018-06-14T19:22:34.576Z,14.90
2018-06-14T19:25:03.049Z,14.90
2018-06-14T19:27:31.516Z,14.70
2018-06-14T19:29:59.990Z,14.60
2018-06-14T19:32:28.437Z,14.50
2018-06-14T19:34:56.884Z,14.40
2018-06-14T19:37:25.393Z,14.30
2018-06-14T19:39:53.910Z,14.20
2018-06-14T19:42:22.721Z,14.10
2018-06-14T19:44:51.250Z,14.10
2018-06-14T19:47:20.271Z,13.80
2018-06-14T19:49:48.710Z,13.80
2018-06-14T19:52:17.267Z,13.70
2018-06-14T19:54:45.771Z,13.60
2018-06-14T19:57:14.244Z,13.50
2018-06-14T19:59:42.741Z,13.40
2018-06-14T20:02:11.255Z,13.30
2018-06-14T20:04:39.885Z,13.40
2018-06-14T20:07:08.620Z,13.20
2018-06-14T20:09:37.025Z,13.10
2018-06-14T20:12:05.636Z,13.00
2018-06-14T20:14:34.228Z,12.80
2018-06-14T20:17:02.924Z,12.80
2018-06-14T20:19:31.537Z,12.70
2018-06-14T20:22:01.386Z,12.50
2018-06-14T20:24:29.844Z,12.50
2018-06-14T20:26:59.062Z,12.40
2018-06-14T20:29:27.769Z,12.30
2018-06-14T20:31:56.225Z,12.30
2018-06-14T20:34:24.769Z,12.30
2018-06-14T20:36:53.437Z,12.10
2018-06-14T20:41:50.159Z,12.10
2018-06-14T20:46:46.756Z,11.80
2018-06-14T20:51:43.387Z,11.70
2018-06-14T20:54:11.841Z,11.60
2018-06-14T20:56:40.358Z,11.60
2018-06-14T20:59:08.801Z,11.50
2018-06-14T21:01:37.320Z,11.50
2018-06-14T21:04:05.928Z,11.50
2018-06-14T21:06:34.433Z,11.40
2018-06-14T21:09:02.988Z,11.40
2018-06-14T21:11:31.464Z,11.30
2018-06-14T21:14:00.010Z,11.30
2018-06-14T21:16:28.507Z,11.20
2018-06-14T21:18:57.198Z,11.20
2018-06-14T21:21:25.660Z,11.10
2018-06-14T21:23:54.093Z,11.00
2018-06-14T21:26:23.558Z,10.90
2018-06-14T21:28:52.013Z,10.80
2018-06-14T21:31:20.485Z,10.90
2018-06-14T21:33:48.906Z,10.90
2018-06-14T21:36:17.432Z,10.80
2018-06-14T21:38:45.924Z,10.70
2018-06-14T21:41:14.453Z,10.70
2018-06-14T21:43:43.556Z,10.60
2018-06-14T21:46:12.066Z,10.50
2018-06-14T21:51:08.836Z,10.50
2018-06-14T21:53:37.311Z,10.40
2018-06-14T21:56:05.893Z,10.40
2018-06-14T21:58:34.364Z,10.30
2018-06-14T22:01:02.896Z,10.20
2018-06-14T22:03:36.677Z,10.20
2018-06-14T22:06:05.146Z,10.20
2018-06-14T22:08:33.564Z,10.10
2018-06-14T22:11:01.985Z,10.00
2018-06-14T22:13:30.455Z,10.00
2018-06-14T22:15:58.992Z,10.00
2018-06-14T22:18:27.512Z,10.10
2018-06-14T22:20:56.039Z,10.00
2018-06-14T22:25:52.748Z,10.00
2018-06-14T22:28:21.206Z,10.00
2018-06-14T22:30:49.656Z,9.90
2018-06-14T22:33:29.473Z,9.80
2018-06-14T22:35:57.921Z,9.80
2018-06-14T22:38:26.505Z,9.90
2018-06-14T22:40:54.939Z,9.90
2018-06-14T22:43:23.480Z,9.90
2018-06-14T22:45:51.897Z,9.90
2018-06-14T22:48:20.361Z,9.90
2018-06-14T22:51:00.169Z,10.10
2018-06-14T22:53:28.649Z,10.10
2018-06-14T22:55:57.969Z,10.20
2018-06-14T22:58:26.402Z,10.30
2018-06-14T23:01:36.477Z,10.40
2018-06-14T23:06:33.477Z,10.40
2018-06-14T23:09:11.717Z,10.40
2018-06-14T23:11:40.251Z,10.40
2018-06-14T23:14:08.653Z,10.40
2018-06-14T23:16:37.087Z,10.40
2018-06-14T23:19:05.541Z,10.30
2018-06-14T23:21:34.066Z,10.40
2018-06-14T23:24:02.666Z,10.40
2018-06-14T23:26:31.302Z,10.40
2018-06-14T23:28:59.808Z,10.40
2018-06-14T23:31:28.261Z,10.40
2018-06-14T23:33:56.767Z,10.30
2018-06-14T23:36:25.217Z,10.20
2018-06-14T23:38:53.688Z,10.20
2018-06-14T23:41:22.125Z,10.20
2018-06-14T23:43:50.653Z,10.20
2018-06-14T23:46:19.162Z,10.20
2018-06-14T23:48:47.618Z,10.20
2018-06-14T23:51:16.256Z,10.20
2018-06-14T23:53:44.705Z,10.20
2018-06-14T23:56:13.157Z,10.10
2018-06-14T23:58:41.585Z,10.10
